Time;durP1;ratioP1;P1;durP2;ratioP2;P2;SDS_P1;SDS_P2;PMS_P1;PMS_P2;Temp;Humidity;BMP_temperature;BMP_pressure;BME280_temperature;BME280_humidity;BME280_pressure;Samples;Min_cycle;Max_cycle;Signal;HPM_P1;HPM_P2
2021/12/19 00:00:27;;;;;;;204.20;20.42;;;;;;;7.31;67.03;98876.25;4967114;28;20276;-84
2021/12/19 00:03:19;;;;;;;92.97;13.75;;;;;;;7.38;66.71;98875.53;4969605;28;20245;-83
2021/12/19 00:10:55;;;;;;;123.50;15.25;;;;;;;7.37;66.76;98886.88;4985225;28;20368;-85
2021/12/19 00:13:23;;;;;;;147.18;16.13;;;;;;;7.19;66.93;98877.69;4981927;28;20181;-85
2021/12/19 00:15:48;;;;;;;157.95;16.23;;;;;;;7.34;66.85;98888.06;5006770;28;20764;-84
2021/12/19 00:18:13;;;;;;;219.98;21.58;;;;;;;7.12;67.47;98887.19;4969419;28;20353;-84
2021/12/19 00:20:39;;;;;;;252.40;21.67;;;;;;;7.20;67.13;98858.59;4983606;28;20270;-84
2021/12/19 00:23:04;;;;;;;254.90;24.23;;;;;;;7.22;66.70;98861.00;4984319;28;20242;-83
2021/12/19 00:25:30;;;;;;;193.30;20.15;;;;;;;7.41;66.89;98870.00;4980470;28;20198;-83
2021/12/19 00:27:55;;;;;;;301.65;26.73;;;;;;;7.01;67.73;98859.13;5001192;28;20209;-83
2021/12/19 00:30:20;;;;;;;224.98;22.25;;;;;;;7.27;66.97;98864.66;4981749;28;20209;-83
2021/12/19 00:32:46;;;;;;;93.90;11.32;;;;;;;7.35;66.92;98860.34;4960482;28;20286;-83
2021/12/19 00:35:11;;;;;;;200.18;19.23;;;;;;;7.46;66.41;98854.72;4985891;28;20170;-83
2021/12/19 00:37:37;;;;;;;82.75;10.90;;;;;;;7.52;66.42;98856.56;4970838;28;20253;-83
2021/12/19 00:40:03;;;;;;;229.43;21.30;;;;;;;7.49;66.25;98849.16;4965371;28;20163;-84
2021/12/19 00:42:34;;;;;;;90.18;13.15;;;;;;;7.44;66.17;98843.72;4999599;28;20169;-83
2021/12/19 00:45:02;;;;;;;264.98;23.88;;;;;;;7.27;66.70;98840.53;4960920;28;20529;-84
2021/12/19 00:47:28;;;;;;;75.53;9.70;;;;;;;7.33;66.59;98842.41;4980760;28;20154;-84
2021/12/19 00:49:55;;;;;;;131.32;16.30;;;;;;;7.29;66.63;98835.97;4985495;28;20360;-83
2021/12/19 00:52:21;;;;;;;120.15;15.57;;;;;;;7.31;67.08;98852.16;4983032;28;20159;-83
2021/12/19 00:54:46;;;;;;;79.07;9.93;;;;;;;7.31;66.78;98852.16;4986961;28;20278;-83
2021/12/19 00:57:11;;;;;;;102.63;12.88;;;;;;;7.42;66.54;98848.28;4966936;28;20636;-83
2021/12/19 00:59:37;;;;;;;76.43;11.15;;;;;;;7.25;67.38;98851.09;4968847;28;20192;-83
2021/12/19 01:02:02;;;;;;;166.68;16.95;;;;;;;7.35;67.01;98852.56;4960649;28;20311;-84
2021/12/19 01:04:28;;;;;;;216.52;20.55;;;;;;;7.15;66.87;98849.78;4985552;28;20253;-83
2021/12/19 01:06:53;;;;;;;91.43;11.65;;;;;;;7.17;67.08;98851.19;4967602;28;20288;-83
2021/12/19 01:09:19;;;;;;;128.48;14.00;;;;;;;7.02;67.14;98840.03;4980703;28;20208;-83
2021/12/19 01:11:48;;;;;;;30.63;7.57;;;;;;;7.11;67.32;98836.34;4981043;28;20275;-83
2021/12/19 01:14:14;;;;;;;105.65;11.00;;;;;;;7.16;66.66;98830.63;4961977;28;20656;-83
2021/12/19 01:16:39;;;;;;;38.30;6.75;;;;;;;7.20;66.84;98829.31;4980162;28;20235;-83
2021/12/19 01:19:05;;;;;;;18.48;4.75;;;;;;;7.23;66.76;98821.97;4976953;28;20136;-83
2021/12/19 01:21:30;;;;;;;14.43;4.95;;;;;;;7.27;66.22;98823.19;4985102;28;20273;-83
2021/12/19 01:23:56;;;;;;;20.23;5.07;;;;;;;7.16;66.81;98823.66;4992296;28;20231;-83
2021/12/19 01:26:21;;;;;;;48.10;7.57;;;;;;;7.03;66.57;98826.13;4983823;28;20268;-84
2021/12/19 01:28:46;;;;;;;40.10;7.18;;;;;;;7.06;66.50;98839.50;4978597;28;20205;-84
2021/12/19 01:31:12;;;;;;;21.30;4.82;;;;;;;7.10;66.87;98834.75;4971316;28;20704;-83
2021/12/19 01:33:38;;;;;;;31.75;7.18;;;;;;;7.20;66.71;98818.94;4995737;28;20213;-83
2021/12/19 01:36:04;;;;;;;37.08;6.32;;;;;;;7.16;67.16;98828.84;4989763;28;20216;-83
2021/12/19 01:38:30;;;;;;;15.98;4.75;;;;;;;7.30;66.37;98832.41;4988011;28;20197;-83
2021/12/19 01:40:57;;;;;;;66.63;8.63;;;;;;;7.23;66.35;98829.75;4982934;28;20395;-83
2021/12/19 01:43:25;;;;;;;69.35;9.23;;;;;;;7.12;66.92;98827.59;4987728;28;20185;-83
2021/12/19 01:45:51;;;;;;;49.63;6.45;;;;;;;7.21;66.70;98829.09;4989308;28;20243;-83
2021/12/19 01:48:17;;;;;;;100.47;12.25;;;;;;;6.95;67.42;98829.59;5005600;28;20179;-83
2021/12/19 01:50:42;;;;;;;73.45;9.98;;;;;;;6.97;67.04;98830.19;4968716;28;20204;-83
2021/12/19 01:53:11;;;;;;;35.53;7.45;;;;;;;7.07;67.47;98832.53;4999562;28;20104;-83
2021/12/19 01:55:37;;;;;;;48.20;7.00;;;;;;;7.17;66.86;98833.06;4967467;28;20169;-83
2021/12/19 01:58:02;;;;;;;143.73;13.82;;;;;;;7.09;67.12;98836.56;4979134;28;20286;-83
2021/12/19 02:00:34;;;;;;;53.63;7.43;;;;;;;7.09;66.58;98825.38;4985048;28;20588;-83
2021/12/19 02:03:01;;;;;;;40.10;6.80;;;;;;;7.17;66.73;98824.47;4997082;28;20185;-83
2021/12/19 02:05:27;;;;;;;38.13;7.22;;;;;;;7.25;66.75;98826.97;4982840;28;20281;-83
2021/12/19 02:07:54;;;;;;;117.57;13.80;;;;;;;6.83;67.45;98824.06;4972098;28;20261;-84
2021/12/19 02:10:23;;;;;;;109.47;13.98;;;;;;;6.75;67.81;98814.59;4985905;28;20158;-83
2021/12/19 02:12:50;;;;;;;21.95;5.45;;;;;;;7.09;67.35;98825.38;5000780;28;20205;-82
2021/12/19 02:15:21;;;;;;;14.77;5.05;;;;;;;7.13;66.84;98813.69;4965314;28;20177;-83
2021/12/19 02:17:49;;;;;;;40.42;7.78;;;;;;;7.16;66.95;98813.28;4969830;28;20176;-82
2021/12/19 02:20:16;;;;;;;14.10;5.50;;;;;;;7.27;66.44;98812.84;4983372;28;20188;-82
2021/12/19 02:22:41;;;;;;;17.75;6.28;;;;;;;7.37;66.76;98814.31;4987858;28;20301;-82
2021/12/19 02:25:07;;;;;;;16.15;5.07;;;;;;;7.14;67.16;98802.31;4980988;28;20303;-83
2021/12/19 02:27:33;;;;;;;7.03;3.67;;;;;;;7.20;67.21;98801.59;4972125;28;20700;-82
2021/12/19 02:29:59;;;;;;;6.32;2.78;;;;;;;6.95;67.63;98803.69;4987344;28;20298;-82
2021/12/19 02:32:26;;;;;;;6.38;3.25;;;;;;;7.10;66.78;98795.91;4978189;28;20246;-84
2021/12/19 02:34:54;;;;;;;7.65;3.90;;;;;;;7.26;66.71;98792.28;4982202;28;20259;-82
2021/12/19 02:40:39;;;;;;;8.32;3.70;;;;;;;7.31;66.34;98780.38;4982192;28;20652;-83
2021/12/19 02:48:33;;;;;;;7.20;3.33;;;;;;;7.47;66.43;98775.97;5003365;28;20823;-83
2021/12/19 02:50:59;;;;;;;5.47;2.60;;;;;;;7.56;66.59;98763.72;4978036;28;20274;-83
2021/12/19 02:53:33;;;;;;;8.43;2.60;;;;;;;7.42;65.80;98765.34;4988539;28;20287;-83
2021/12/19 02:56:01;;;;;;;5.30;2.22;;;;;;;7.50;66.06;98760.06;5007253;28;20335;-83
2021/12/19 02:58:27;;;;;;;7.75;2.95;;;;;;;7.55;66.04;98762.88;4962759;28;20260;-83
2021/12/19 03:00:53;;;;;;;9.23;3.47;;;;;;;7.52;66.02;98757.28;4984864;28;20303;-83
2021/12/19 03:03:19;;;;;;;9.07;2.85;;;;;;;7.32;66.31;98766.47;4987973;28;20188;-83
2021/12/19 03:05:45;;;;;;;5.55;3.05;;;;;;;7.41;66.20;98755.97;4972957;28;20103;-83
2021/12/19 03:08:11;;;;;;;6.25;3.22;;;;;;;7.40;66.41;98760.38;4997635;28;20036;-83
2021/12/19 03:18:40;;;;;;;8.13;3.00;;;;;;;7.45;66.25;98752.84;4981091;28;20201;-83
2021/12/19 03:21:10;;;;;;;7.28;2.58;;;;;;;7.44;66.07;98758.22;4983978;28;20251;-83
2021/12/19 03:23:35;;;;;;;8.93;3.13;;;;;;;7.34;66.21;98760.31;5004930;28;20637;-83
2021/12/19 03:26:00;;;;;;;15.07;3.50;;;;;;;7.35;66.41;98752.34;4987214;28;20275;-83
2021/12/19 03:28:26;;;;;;;14.45;3.70;;;;;;;7.29;66.66;98764.22;4989875;28;20226;-83
2021/12/19 03:30:52;;;;;;;21.75;3.67;;;;;;;7.44;66.63;98766.78;4984112;28;20693;-83
2021/12/19 03:33:17;;;;;;;41.67;5.65;;;;;;;7.48;66.04;98759.44;4978282;28;20098;-82
2021/12/19 03:35:43;;;;;;;50.97;6.88;;;;;;;7.49;65.77;98761.06;4985876;28;20756;-83
2021/12/19 03:38:10;;;;;;;41.70;6.50;;;;;;;7.46;66.04;98764.81;4990839;28;20197;-83
2021/12/19 03:40:42;;;;;;;24.55;4.05;;;;;;;7.46;65.69;98751.06;4995247;28;20568;-84
2021/12/19 03:43:15;;;;;;;4.15;2.10;;;;;;;7.49;65.69;98748.88;4986669;28;21094;-83
2021/12/19 03:45:43;;;;;;;4.45;1.90;;;;;;;7.66;64.99;98739.06;4992316;28;20185;-82
2021/12/19 03:48:12;;;;;;;19.52;3.45;;;;;;;7.58;65.67;98741.78;4992603;28;20192;-83
2021/12/19 03:50:39;;;;;;;23.88;3.42;;;;;;;7.52;65.76;98742.50;5006709;28;20168;-83
2021/12/19 03:53:04;;;;;;;7.22;2.35;;;;;;;7.57;65.93;98745.34;5013854;28;20645;-83
2021/12/19 03:55:30;;;;;;;8.32;2.75;;;;;;;7.67;65.68;98735.47;4973218;28;20146;-83
2021/12/19 03:57:57;;;;;;;5.18;2.25;;;;;;;7.62;65.45;98731.84;5001369;28;20185;-82
2021/12/19 04:00:25;;;;;;;4.45;1.83;;;;;;;7.60;65.66;98718.28;4993080;28;20206;-82
2021/12/19 04:02:53;;;;;;;6.60;2.38;;;;;;;7.64;65.32;98733.28;4981760;28;20268;-82
2021/12/19 04:05:19;;;;;;;22.25;3.67;;;;;;;7.67;65.54;98738.06;4994290;28;20240;-83
2021/12/19 04:07:44;;;;;;;26.75;4.47;;;;;;;7.54;65.79;98743.16;4968738;28;20224;-83
2021/12/19 04:10:10;;;;;;;25.95;4.13;;;;;;;7.63;65.32;98731.66;5015496;28;20201;-82
2021/12/19 04:12:35;;;;;;;8.52;2.35;;;;;;;7.59;65.45;98735.63;4970231;28;20342;-83
2021/12/19 04:15:00;;;;;;;31.20;4.15;;;;;;;7.57;65.62;98740.16;4984048;28;20685;-83
2021/12/19 04:17:26;;;;;;;40.60;5.22;;;;;;;7.56;65.74;98727.44;5000631;28;20227;-83
2021/12/19 04:19:51;;;;;;;160.40;13.18;;;;;;;7.20;66.02;98734.25;4999969;28;20235;-83
2021/12/19 04:22:17;;;;;;;24.10;3.38;;;;;;;7.58;65.45;98738.41;4984516;28;20205;-82
2021/12/19 04:24:42;;;;;;;35.05;4.38;;;;;;;7.47;65.89;98721.53;5003297;28;20188;-82
2021/12/19 04:27:08;;;;;;;33.63;4.10;;;;;;;7.54;65.86;98719.84;4999096;28;20696;-82
2021/12/19 04:29:33;;;;;;;10.27;2.42;;;;;;;7.57;65.72;98713.47;4997205;28;20177;-82
2021/12/19 04:31:58;;;;;;;105.30;9.32;;;;;;;7.58;65.56;98709.88;4969005;28;20693;-82
2021/12/19 04:34:24;;;;;;;255.55;21.30;;;;;;;7.40;65.96;98715.50;4981198;28;20108;-82
2021/12/19 04:36:56;;;;;;;37.83;5.28;;;;;;;7.49;65.91;98722.19;4985265;28;20647;-82
2021/12/19 04:39:33;;;;;;;6.40;2.75;;;;;;;7.58;65.50;98725.44;4987655;28;20345;-82
2021/12/19 04:42:51;;;;;;;5.45;2.53;;;;;;;7.57;65.65;98716.84;4980685;28;20584;-82
2021/12/19 04:55:41;;;;;;;156.18;13.93;;;;;;;7.59;65.74;98707.13;4998316;28;20186;-82
2021/12/19 04:58:33;;;;;;;178.77;13.82;;;;;;;7.58;65.74;98708.09;4983262;28;20266;-82
2021/12/19 05:03:41;;;;;;;154.15;14.07;;;;;;;7.18;66.93;98701.72;4993898;28;20209;-82
2021/12/19 05:06:36;;;;;;;33.63;4.68;;;;;;;7.22;66.65;98706.38;4995457;28;20636;-82
2021/12/19 05:14:36;;;;;;;14.35;3.70;;;;;;;7.44;65.93;98691.63;4988747;28;20206;-82
2021/12/19 05:17:06;;;;;;;11.70;3.30;;;;;;;7.51;65.52;98694.28;4980631;28;20274;-82
2021/12/19 05:19:45;;;;;;;13.38;3.90;;;;;;;7.57;65.03;98693.50;4996080;28;20631;-82
2021/12/19 05:22:11;;;;;;;22.58;4.63;;;;;;;7.59;65.17;98691.56;5002313;28;20282;-82
2021/12/19 05:27:02;;;;;;;19.67;5.47;;;;;;;7.57;65.48;98690.91;4979414;28;20278;-82
2021/12/19 05:29:28;;;;;;;14.13;4.00;;;;;;;7.57;65.70;98685.75;4985191;28;20241;-82
2021/12/19 05:31:53;;;;;;;13.80;4.63;;;;;;;7.61;65.43;98684.41;4992115;28;20271;-82
2021/12/19 05:34:19;;;;;;;12.73;4.20;;;;;;;7.58;65.56;98678.78;4953805;28;20354;-82
2021/12/19 05:47:23;;;;;;;48.97;8.45;;;;;;;7.48;65.18;98659.16;5002680;28;20213;-81
2021/12/19 05:49:49;;;;;;;22.83;5.93;;;;;;;7.47;65.25;98657.56;4976649;28;20275;-82
2021/12/19 05:52:15;;;;;;;27.70;7.40;;;;;;;7.47;65.47;98652.38;4996960;28;20353;-81
2021/12/19 05:54:40;;;;;;;30.20;7.47;;;;;;;7.52;65.30;98653.59;4986022;28;20250;-82
2021/12/19 05:57:06;;;;;;;15.57;5.90;;;;;;;7.58;65.28;98640.69;4963927;28;20224;-81
2021/12/19 05:59:31;;;;;;;13.48;5.68;;;;;;;7.63;65.11;98635.75;4964239;28;20280;-82
2021/12/19 06:01:56;;;;;;;21.23;6.13;;;;;;;7.72;64.50;98649.38;5017576;28;20275;-81
2021/12/19 06:04:22;;;;;;;20.02;6.60;;;;;;;7.66;64.93;98637.19;4998199;28;20657;-81
2021/12/19 06:06:47;;;;;;;14.00;8.30;;;;;;;7.59;65.38;98631.94;5000221;28;20345;-80
2021/12/19 06:09:14;;;;;;;13.30;7.13;;;;;;;7.68;65.13;98643.75;4996906;28;20190;-80
2021/12/19 06:11:39;;;;;;;11.02;6.13;;;;;;;7.73;64.73;98632.00;5001238;28;20452;-81
2021/12/19 06:14:04;;;;;;;20.05;6.38;;;;;;;7.73;65.04;98626.81;4961424;28;20813;-81
2021/12/19 06:16:30;;;;;;;37.28;8.35;;;;;;;7.68;64.92;98635.19;4960926;28;20344;-81
2021/12/19 06:18:56;;;;;;;39.70;9.43;;;;;;;7.59;64.69;98624.16;4985404;28;20678;-81
2021/12/19 06:21:21;;;;;;;31.23;8.35;;;;;;;7.60;65.11;98625.75;4986823;28;20283;-81
2021/12/19 06:23:46;;;;;;;31.90;8.82;;;;;;;7.55;65.32;98628.09;5003889;28;20819;-81
2021/12/19 06:26:12;;;;;;;14.25;6.55;;;;;;;7.66;64.75;98625.00;4987002;28;20413;-81
2021/12/19 06:28:38;;;;;;;14.00;6.32;;;;;;;7.69;64.94;98619.44;5003726;28;20189;-81
2021/12/19 06:31:03;;;;;;;15.65;6.07;;;;;;;7.66;64.93;98614.63;4992865;28;20247;-81
2021/12/19 06:33:29;;;;;;;10.05;5.50;;;;;;;7.65;64.84;98607.84;4983041;28;20167;-81
2021/12/19 06:35:54;;;;;;;14.77;5.82;;;;;;;7.61;65.18;98605.84;4992332;28;20210;-81
2021/12/19 06:38:19;;;;;;;10.18;5.18;;;;;;;7.64;65.23;98618.41;4952898;28;20569;-81
2021/12/19 06:40:45;;;;;;;28.52;9.45;;;;;;;7.57;64.98;98615.75;4975302;28;20198;-81
2021/12/19 06:43:10;;;;;;;11.73;6.28;;;;;;;7.67;65.51;98618.03;4977831;28;20703;-81
2021/12/19 06:45:36;;;;;;;27.80;7.85;;;;;;;7.68;64.99;98606.69;4972211;28;20171;-81
2021/12/19 06:48:01;;;;;;;11.50;6.22;;;;;;;7.79;64.94;98618.31;4957451;28;20331;-81
2021/12/19 06:50:27;;;;;;;22.58;7.50;;;;;;;7.68;64.92;98612.66;5004680;28;20226;-81
2021/12/19 06:52:52;;;;;;;13.40;7.57;;;;;;;7.68;65.08;98615.25;4983076;28;20256;-81
2021/12/19 06:55:18;;;;;;;42.28;10.32;;;;;;;7.61;64.92;98611.03;4996876;28;20614;-81
2021/12/19 06:57:45;;;;;;;24.55;9.23;;;;;;;7.66;64.77;98619.81;4967275;28;20198;-80
2021/12/19 07:00:14;;;;;;;33.53;10.95;;;;;;;7.63;64.79;98620.19;4950987;28;20223;-81
2021/12/19 07:02:40;;;;;;;29.90;9.18;;;;;;;7.64;64.89;98621.81;4987475;28;20341;-81
2021/12/19 07:05:05;;;;;;;14.80;8.23;;;;;;;7.63;64.94;98622.78;4967783;28;20249;-81
2021/12/19 07:07:31;;;;;;;79.50;14.13;;;;;;;7.51;65.59;98619.13;4953717;28;20182;-80
2021/12/19 07:09:57;;;;;;;19.63;9.35;;;;;;;7.55;65.78;98612.56;4962428;28;20691;-81
2021/12/19 07:12:26;;;;;;;16.65;8.48;;;;;;;7.73;65.02;98619.88;4985050;28;20264;-81
2021/12/19 07:14:52;;;;;;;25.88;11.45;;;;;;;7.69;64.95;98619.44;4985490;28;20244;-81
2021/12/19 07:17:17;;;;;;;16.90;9.40;;;;;;;7.55;65.43;98622.94;4978895;28;20156;-81
2021/12/19 07:19:43;;;;;;;25.42;11.18;;;;;;;7.69;64.94;98622.03;4970614;28;20291;-81
2021/12/19 07:22:08;;;;;;;18.98;10.98;;;;;;;7.63;65.18;98625.38;4980053;28;20168;-81
2021/12/19 07:24:34;;;;;;;20.80;10.77;;;;;;;7.64;64.41;98621.00;4964063;28;20249;-81
2021/12/19 07:26:59;;;;;;;19.58;10.10;;;;;;;7.45;65.57;98620.69;4988149;28;20280;-81
2021/12/19 07:29:24;;;;;;;14.25;8.50;;;;;;;7.61;64.96;98617.00;4985013;28;20187;-81
2021/12/19 07:31:50;;;;;;;20.48;10.82;;;;;;;7.62;64.81;98622.97;4987384;28;20202;-81
2021/12/19 07:34:15;;;;;;;15.32;9.18;;;;;;;7.67;65.00;98621.41;4980813;28;20244;-81
2021/12/19 07:36:47;;;;;;;18.70;9.52;;;;;;;7.51;65.05;98629.50;4982407;28;20207;-81
2021/12/19 07:39:25;;;;;;;14.60;8.88;;;;;;;7.57;65.34;98628.72;4980565;28;20122;-81
2021/12/19 07:41:50;;;;;;;19.55;10.02;;;;;;;7.52;65.15;98627.69;4987964;28;20643;-81
2021/12/19 07:44:16;;;;;;;17.58;9.50;;;;;;;7.57;65.52;98631.31;4988028;28;20268;-80
2021/12/19 07:46:42;;;;;;;21.60;11.10;;;;;;;7.65;65.30;98627.78;4970466;28;20281;-81
2021/12/19 07:49:08;;;;;;;26.27;17.73;;;;;;;7.42;65.65;98617.63;4966176;28;20194;-81
2021/12/19 07:51:33;;;;;;;26.98;17.00;;;;;;;7.54;65.52;98629.13;4977201;28;20210;-81
2021/12/19 07:53:58;;;;;;;22.85;11.50;;;;;;;7.57;65.03;98613.16;4963350;28;20198;-81
2021/12/19 07:56:24;;;;;;;20.60;10.48;;;;;;;7.63;64.67;98620.19;4981066;28;20346;-81
2021/12/19 07:58:49;;;;;;;22.90;13.52;;;;;;;7.63;65.09;98622.00;4965087;28;20195;-80
2021/12/19 08:01:14;;;;;;;16.10;9.30;;;;;;;7.68;65.11;98617.03;4962272;28;20247;-80
2021/12/19 08:03:40;;;;;;;17.00;9.18;;;;;;;7.72;64.55;98615.66;5001205;28;20193;-81
2021/12/19 08:06:05;;;;;;;19.20;12.45;;;;;;;7.60;65.05;98605.03;5006282;28;20271;-80
2021/12/19 08:08:33;;;;;;;16.17;8.48;;;;;;;7.69;64.45;98606.50;4959428;28;20691;-80
2021/12/19 08:13:42;;;;;;;17.02;9.27;;;;;;;7.75;64.74;98607.50;4988417;28;20198;-80
2021/12/19 08:16:08;;;;;;;15.77;8.75;;;;;;;7.77;64.83;98600.34;4985236;28;20265;-80
2021/12/19 08:18:36;;;;;;;16.10;8.27;;;;;;;7.72;64.57;98602.69;4988500;28;20625;-80
2021/12/19 08:21:02;;;;;;;14.10;7.82;;;;;;;7.85;64.43;98604.59;4970364;28;20167;-80
2021/12/19 08:23:28;;;;;;;13.55;6.88;;;;;;;7.82;64.36;98599.78;4985328;28;20202;-80
2021/12/19 08:25:53;;;;;;;17.73;8.70;;;;;;;7.76;64.90;98597.94;4989289;28;20159;-80
2021/12/19 08:28:19;;;;;;;16.85;9.18;;;;;;;7.79;64.99;98600.94;4994075;28;20288;-80
2021/12/19 08:30:44;;;;;;;19.27;9.77;;;;;;;7.78;64.83;98603.72;4952724;28;20202;-80
2021/12/19 08:33:10;;;;;;;15.43;9.10;;;;;;;7.84;64.96;98600.38;4992885;28;20202;-81
2021/12/19 08:35:35;;;;;;;16.60;8.63;;;;;;;7.84;64.73;98590.00;5008990;28;20129;-81
2021/12/19 08:38:00;;;;;;;17.30;9.82;;;;;;;7.93;64.74;98585.47;4996065;28;20262;-81
2021/12/19 08:40:28;;;;;;;14.23;8.02;;;;;;;7.97;64.17;98587.50;4980326;28;20107;-80
2021/12/19 08:42:53;;;;;;;12.82;7.03;;;;;;;7.98;64.25;98585.69;4985293;28;20267;-80
2021/12/19 08:45:20;;;;;;;15.63;8.45;;;;;;;8.00;64.40;98583.69;5005181;28;20169;-80
2021/12/19 08:47:46;;;;;;;16.02;9.20;;;;;;;7.97;63.99;98573.69;5021179;28;20202;-81
2021/12/19 08:50:11;;;;;;;16.95;10.20;;;;;;;8.00;64.24;98579.31;4998671;28;20168;-81
2021/12/19 08:52:37;;;;;;;13.88;8.48;;;;;;;8.15;64.01;98571.38;4983098;28;20273;-81
2021/12/19 08:55:04;;;;;;;13.52;8.32;;;;;;;8.11;63.86;98572.00;4997538;28;20303;-80
2021/12/19 08:57:30;;;;;;;13.38;7.60;;;;;;;8.07;64.20;98569.78;4948204;28;20191;-81
2021/12/19 08:59:55;;;;;;;13.73;7.68;;;;;;;8.09;64.23;98567.00;4969691;28;20294;-81
2021/12/19 09:02:21;;;;;;;16.05;8.57;;;;;;;8.05;64.51;98571.78;4968168;28;20205;-81
2021/12/19 09:04:46;;;;;;;13.77;7.00;;;;;;;8.13;64.13;98568.19;4964273;28;20569;-81
2021/12/19 09:07:13;;;;;;;13.35;7.55;;;;;;;8.10;64.36;98558.19;4962210;28;20679;-81
2021/12/19 09:09:38;;;;;;;12.75;6.97;;;;;;;8.20;63.85;98547.47;4984069;28;20288;-80
2021/12/19 09:12:04;;;;;;;11.98;7.20;;;;;;;8.18;64.06;98550.25;4978332;28;20271;-81
2021/12/19 09:14:29;;;;;;;17.85;9.75;;;;;;;8.13;64.31;98563.00;4980340;28;20298;-80
2021/12/19 09:16:55;;;;;;;20.67;10.68;;;;;;;8.24;63.88;98554.69;4980326;28;20274;-81
2021/12/19 09:19:21;;;;;;;23.38;11.23;;;;;;;8.31;63.79;98559.88;4979293;28;20176;-81
2021/12/19 09:21:47;;;;;;;19.02;10.02;;;;;;;8.40;63.20;98560.50;4980719;28;20665;-81
2021/12/19 09:24:12;;;;;;;18.58;9.65;;;;;;;8.30;63.31;98558.28;4979816;28;20650;-81
2021/12/19 09:26:38;;;;;;;20.42;11.00;;;;;;;8.29;63.36;98566.25;4953125;28;20179;-81
2021/12/19 09:29:03;;;;;;;14.35;9.43;;;;;;;8.23;63.61;98571.22;4984284;28;20271;-81
2021/12/19 09:31:29;;;;;;;17.05;9.80;;;;;;;8.23;63.83;98567.84;4986146;28;20194;-80
2021/12/19 09:33:54;;;;;;;19.67;10.98;;;;;;;8.11;64.39;98577.19;4997436;28;20186;-80
2021/12/19 09:36:19;;;;;;;20.65;10.38;;;;;;;8.31;63.49;98567.66;4976469;28;20155;-80
2021/12/19 09:38:48;;;;;;;18.15;9.48;;;;;;;8.22;63.71;98567.03;4984042;28;20401;-80
2021/12/19 09:41:27;;;;;;;18.50;10.23;;;;;;;8.26;64.04;98562.28;4998903;28;20619;-80
2021/12/19 09:43:53;;;;;;;16.52;9.57;;;;;;;8.39;63.56;98566.69;4962758;28;20356;-80
2021/12/19 09:46:21;;;;;;;16.73;8.57;;;;;;;8.39;63.48;98564.09;4985453;28;20347;-80
2021/12/19 09:48:48;;;;;;;14.90;9.25;;;;;;;8.44;63.75;98570.31;4992830;28;20753;-80
2021/12/19 09:51:18;;;;;;;18.92;9.48;;;;;;;8.46;63.42;98562.34;4991735;28;20402;-80
2021/12/19 09:53:45;;;;;;;18.90;9.45;;;;;;;8.45;63.78;98560.75;4990740;28;20235;-81
2021/12/19 09:56:11;;;;;;;17.77;9.85;;;;;;;8.46;63.55;98567.53;4966428;28;20223;-81
2021/12/19 09:58:37;;;;;;;18.50;10.50;;;;;;;8.46;63.76;98553.75;4975925;28;20313;-80
2021/12/19 10:01:06;;;;;;;16.33;8.15;;;;;;;8.44;63.19;98554.75;4999262;28;20175;-81
2021/12/19 10:03:32;;;;;;;19.70;10.55;;;;;;;8.43;63.64;98552.34;4989124;28;20175;-80
2021/12/19 10:06:19;;;;;;;19.45;10.13;;;;;;;8.40;63.96;98545.72;4953035;28;20203;-80
2021/12/19 10:08:48;;;;;;;19.17;10.45;;;;;;;8.48;63.88;98541.38;4977611;28;20279;-80
2021/12/19 10:11:46;;;;;;;17.10;9.23;;;;;;;8.36;63.84;98546.31;4988939;28;20627;-80
2021/12/19 10:14:38;;;;;;;17.92;10.82;;;;;;;8.34;63.97;98543.91;5002161;28;20183;-81
2021/12/19 10:17:08;;;;;;;18.00;9.15;;;;;;;8.50;63.94;98531.59;4983439;28;20298;-80
2021/12/19 10:19:48;;;;;;;19.17;10.07;;;;;;;8.47;63.83;98532.00;4980562;28;20335;-81
2021/12/19 10:22:38;;;;;;;17.20;8.57;;;;;;;8.49;63.65;98530.81;5011279;28;20319;-80
2021/12/19 10:25:20;;;;;;;18.30;8.75;;;;;;;8.52;63.82;98524.44;4999615;28;20282;-81
2021/12/19 10:27:53;;;;;;;17.70;8.98;;;;;;;8.57;63.61;98511.66;5010395;28;20187;-80
2021/12/19 10:30:30;;;;;;;18.10;8.93;;;;;;;8.56;63.30;98510.84;4976803;28;20647;-81
2021/12/19 10:33:03;;;;;;;20.60;10.00;;;;;;;8.74;63.43;98519.84;4989432;28;20280;-81
2021/12/19 10:35:33;;;;;;;15.55;8.00;;;;;;;8.74;63.44;98523.25;4970758;28;20272;-80
2021/12/19 10:38:00;;;;;;;15.80;9.25;;;;;;;8.71;63.52;98512.47;4990697;28;20237;-81
2021/12/19 10:40:27;;;;;;;17.33;9.75;;;;;;;8.84;63.41;98498.66;4959864;28;20202;-80
2021/12/19 10:43:02;;;;;;;18.75;9.93;;;;;;;8.67;63.77;98501.69;4968737;28;20317;-80
2021/12/19 10:45:30;;;;;;;18.00;9.95;;;;;;;8.73;63.54;98487.88;4975420;28;20211;-80
2021/12/19 10:48:13;;;;;;;22.13;10.30;;;;;;;8.68;63.82;98484.31;4987771;28;20277;-81
2021/12/19 10:51:11;;;;;;;20.13;10.00;;;;;;;8.64;63.99;98476.13;5001098;28;20217;-81
2021/12/19 10:53:42;;;;;;;18.38;10.23;;;;;;;8.78;62.80;98472.50;5001992;28;20159;-81
2021/12/19 10:56:14;;;;;;;17.75;9.65;;;;;;;8.81;63.09;98471.31;4985677;28;20329;-80
2021/12/19 10:58:52;;;;;;;22.40;10.43;;;;;;;8.75;63.00;98470.31;4976353;28;20656;-81
2021/12/19 11:01:29;;;;;;;19.05;9.57;;;;;;;8.73;63.45;98468.91;4973888;28;20315;-81
2021/12/19 11:03:56;;;;;;;19.33;8.93;;;;;;;8.87;63.82;98464.50;4994803;28;20270;-81
2021/12/19 11:06:23;;;;;;;19.58;10.15;;;;;;;8.81;63.30;98445.34;4970095;28;20100;-81
2021/12/19 11:08:51;;;;;;;21.30;9.45;;;;;;;8.87;62.69;98451.53;4984126;28;20380;-82
2021/12/19 11:11:31;;;;;;;20.10;8.75;;;;;;;8.70;63.21;98448.53;4987494;28;20077;-82
2021/12/19 11:13:56;;;;;;;18.27;9.25;;;;;;;8.79;62.73;98442.94;5002873;28;20241;-81
2021/12/19 11:16:22;;;;;;;18.55;9.18;;;;;;;8.77;63.45;98441.53;5004632;28;20228;-81
2021/12/19 11:18:48;;;;;;;17.10;9.25;;;;;;;8.91;62.45;98442.31;5002869;28;20256;-81
2021/12/19 11:21:14;;;;;;;17.63;8.85;;;;;;;8.78;62.66;98435.34;4985023;28;20372;-81
2021/12/19 11:23:40;;;;;;;21.92;9.52;;;;;;;8.95;62.55;98428.75;4996644;28;20238;-81
2021/12/19 11:26:05;;;;;;;18.65;8.55;;;;;;;8.97;62.49;98424.13;4981922;28;20284;-82
2021/12/19 11:28:31;;;;;;;19.33;9.52;;;;;;;8.97;62.68;98423.34;4989080;28;20751;-81
2021/12/19 11:30:56;;;;;;;25.08;10.73;;;;;;;9.00;62.36;98417.75;4993002;28;20193;-81
2021/12/19 11:34:00;;;;;;;17.10;9.25;;;;;;;8.84;62.56;98408.56;4979535;28;20652;-82
2021/12/19 11:36:29;;;;;;;14.75;8.13;;;;;;;8.90;61.86;98401.78;5001195;28;20237;-81
2021/12/19 11:38:55;;;;;;;15.35;7.45;;;;;;;9.03;62.57;98395.75;4997545;28;20241;-81
2021/12/19 11:41:20;;;;;;;17.60;8.35;;;;;;;9.03;62.43;98388.78;4992872;28;20346;-82
2021/12/19 11:43:49;;;;;;;15.07;7.35;;;;;;;8.99;62.91;98388.34;4998224;28;20307;-82
2021/12/19 11:46:17;;;;;;;14.93;7.32;;;;;;;9.00;62.42;98391.78;5004739;28;20650;-82
2021/12/19 11:48:43;;;;;;;17.92;9.60;;;;;;;9.00;62.63;98382.16;4979540;28;20259;-82
2021/12/19 11:51:20;;;;;;;17.10;8.15;;;;;;;8.86;62.52;98374.59;4998919;28;20634;-82
2021/12/19 11:53:46;;;;;;;13.48;7.18;;;;;;;9.04;62.33;98374.75;4992844;28;20710;-82
2021/12/19 11:56:16;;;;;;;15.48;8.13;;;;;;;9.07;61.86;98371.75;4987022;28;20162;-83
2021/12/19 11:58:55;;;;;;;15.77;8.43;;;;;;;9.00;62.33;98378.78;4982209;28;20237;-82
2021/12/19 12:01:27;;;;;;;15.43;8.20;;;;;;;9.06;62.31;98366.78;5003049;28;20379;-82
2021/12/19 12:03:55;;;;;;;14.70;7.50;;;;;;;9.03;62.44;98365.38;4986921;28;20184;-82
2021/12/19 12:06:35;;;;;;;15.25;8.00;;;;;;;8.95;62.58;98363.81;5003429;28;20316;-82
2021/12/19 12:09:08;;;;;;;18.35;8.48;;;;;;;9.00;62.17;98371.00;5002984;28;20162;-82
2021/12/19 12:11:36;;;;;;;19.30;10.63;;;;;;;9.00;62.91;98356.19;4987357;28;20283;-82
2021/12/19 12:14:27;;;;;;;16.95;8.90;;;;;;;8.92;62.87;98346.03;4965518;28;20632;-82
2021/12/19 12:16:59;;;;;;;18.35;8.35;;;;;;;9.10;62.06;98339.38;4983123;28;20212;-82
2021/12/19 12:19:44;;;;;;;13.80;7.80;;;;;;;9.03;62.11;98329.03;4999873;28;20171;-82
2021/12/19 12:22:19;;;;;;;14.27;7.68;;;;;;;9.03;61.84;98329.03;5003386;28;20658;-82
2021/12/19 12:25:04;;;;;;;13.82;7.40;;;;;;;8.91;62.36;98312.47;4982927;28;20441;-82
2021/12/19 12:27:37;;;;;;;14.85;6.93;;;;;;;9.03;61.92;98318.63;4986345;28;20185;-83
2021/12/19 12:30:09;;;;;;;16.55;7.80;;;;;;;9.05;61.58;98315.81;4977199;28;20246;-82
2021/12/19 12:32:35;;;;;;;16.17;7.78;;;;;;;9.20;61.73;98318.94;4991665;28;20636;-83